METAR Data
IDs: Format: Raw Decoded Include TAF

Data at: 2247 UTC 25 Oct 2021

PFSH 252215Z AUTO 28007KT 10SM SCT021 M01/M04 A2935 RMK AO2 FZRANO
PFSH 252156Z AUTO 28007KT 10SM BKN021 M01/M03 A2935 RMK AO2 SLP938 T10061033 FZRANO
PFSH 252056Z AUTO 00000KT 10SM SCT021 BKN028 OVC033 M02/M03 A2934 RMK AO2 SLP935 T10221028 51008 FZRANO
PFSH 252028Z AUTO 32004KT 10SM SCT021 BKN033 M02/M03 A2934 RMK AO2 FZRANO
PFSH 251956Z AUTO 31003KT 10SM BKN018 M02/M02 A2934 RMK AO2 SLP935 T10171022 FZRANO
PFSH 251949Z AUTO 33003KT 10SM BKN018 M02/M02 A2934 RMK AO2 FZRANO
PFSH 251856Z AUTO 29010KT 10SM FEW016 M02/M03 A2933 RMK AO2 SLP931 T10171033 FZRANO
PFSH 251842Z AUTO 29011KT 10SM SCT018 M02/M02 A2933 RMK AO2 FZRANO
PFSH 251756Z AUTO 30010KT 10SM BKN018 M02/M02 A2932 RMK AO2 SLP927 60000 T10171022 10000 21017 53001 FZRANO
PFSH 251740Z AUTO 30007KT 10SM BKN016 M02/M02 A2932 RMK AO2 FZRANO
PFSH 251733Z AUTO 29009KT 10SM SCT016 M02/M03 A2932 RMK AO2 FZRANO
PFSH 251656Z AUTO 25011KT 10SM OVC022 M01/M03 A2931 RMK AO2 SLP926 T10111033 FZRANO
PFSH 251556Z AUTO 28008KT 10SM FEW022 BKN028 M01/M02 A2931 RMK AO2 SLP926 T10111017 FZRANO
PFSH 251547Z AUTO 28008KT 10SM FEW020 OVC028 M01/M02 A2931 RMK AO2 FZRANO
PFSH 251539Z AUTO 29007KT 10SM FEW024 OVC030 M01/M02 A2931 RMK AO2 FZRANO
PFSH 251522Z AUTO 28008KT 10SM FEW024 BKN028 M01/M03 A2931 RMK AO2 FZRANO
PFSH 251456Z AUTO 28010KT 10SM SCT024 M01/M03 A2931 RMK AO2 SLP926 60000 T10111033 58001 FZRANO
PFSH 251356Z AUTO 28008KT 10SM FEW022 M01/M03 A2932 RMK AO2 SLP928 T10111033 FZRANO
PFSH 251353Z AUTO 29008KT 10SM FEW022 SCT029 M01/M03 A2932 RMK AO2 FZRANO
PFSH 251256Z AUTO 27015KT 10SM BKN022 M01/M01 A2932 RMK AO2 UPB00E17 SLP927 P0000 T10061011 FZRANO
PFSH 251242Z AUTO 30013KT 10SM FEW017 M01/M02 A2932 RMK AO2 UPB00E17 P0000 FZRANO
PFSH 251210Z AUTO 28012KT 3SM UP BR FEW009 BKN015 OVC024 00/00 A2931 RMK AO2 UPB00 P0000 FZRANO
PFSH 251156Z AUTO 27012KT 10SM FEW017 BKN024 00/00 A2932 RMK AO2 UPE01B33E43 SLP927 P0000 60000 T00000000 10006 21006 56005 FZRANO
PFSH 251056Z AUTO 24013KT 10SM UP SCT019 BKN026 01/ A2932 RMK AO2 UPE11B49 SLP927 P0000 T0006 FZRANO
PFSH 251011Z AUTO 23006KT 10SM SCT017 BKN038 M01/ A2932 RMK AO2 UPE11 P0000 FZRANO
PFSH 251003Z AUTO 21008KT 6SM UP SCT017 BKN024 BKN038 00/ A2932 RMK AO2 P0000 FZRANO
PFSH 250956Z AUTO 23010KT 4SM UP SCT017 SCT024 BKN038 00/ A2932 RMK AO2 UPB51 SLP930 P0000 T0000 FZRANO
PFSH 250926Z AUTO 23009KT 10SM SCT025 00/ A2933 RMK AO2 FZRANO
PFSH 250856Z AUTO 23011KT 10SM BKN020 00/ A2933 RMK AO2 SLP931 60000 T0000 400171017 58004 FZRANO
PFSH 250756Z AUTO 25009KT 10SM FEW019 BKN031 BKN038 00/ A2934 RMK AO2 SLP934 T0000 FZRANO
PFSH 250749Z AUTO 26011KT 10SM FEW019 BKN031 00/ A2934 RMK AO2 FZRANO
PFSH 250737Z AUTO 24011KT 10SM SCT019 BKN028 00/ A2934 RMK AO2 FZRANO
PFSH 250656Z AUTO 24009KT 10SM SCT030 BKN035 00/ A2934 RMK AO2 UPB01E18SNE01B04E15 SLP934 P0000 T0000 FZRANO
PFSH 250649Z AUTO 24012KT 10SM FEW019 BKN030 BKN035 00/ A2934 RMK AO2 UPB01E18SNE01B04E15 P0000 FZRANO
PFSH 250603Z AUTO 20008KT 5SM UP FEW007 BKN020 OVC032 00/ A2934 RMK AO2 UPB01SNE01 P0000 FZRANO
PFSH 250556Z AUTO 21007KT 8SM -SN SCT006 BKN013 OVC028 00/ A2934 RMK AO2 RAB0457E13UPB06E14B31E35SNB14E27B35 SLP936 P0000 60000 T0000 10017 20000 57008 FZRANO
PFSH 250549Z AUTO 22007KT 3SM -SN FEW006 BKN012 OVC025 00/ A2934 RMK AO2 RAB0457E13UPB06E14B31E35SNB14E27B35 P0000 FZRANO
PFSH 250540Z AUTO 23009KT 1 3/4SM -SN SCT007 BKN013 BKN021 00/ A2935 RMK AO2 RAB0457E13UPB06E14B31E35SNB14E27B35 P0000 FZRANO
PFSH 250537Z AUTO 22011KT 4SM -SN SCT010 BKN013 BKN023 00/ A2935 RMK AO2 RAB0457E13UPB06E14B31E35SNB14E27B35 P0000 FZRANO
PFSH 250523Z AUTO 22008KT 6SM -SN SCT013 BKN021 BKN046 00/ A2935 RMK AO2 RAB0457E13UPB06E14SNB14 P0000 FZRANO
PFSH 250516Z AUTO 23007KT 2 1/2SM -SN BKN013 OVC019 00/ A2935 RMK AO2 RAB0457E13UPB06E14SNB14 P0000 FZRANO
PFSH 250509Z AUTO 26011KT 6SM UP OVC015 00/ A2935 RMK AO2 RAB0457E06UPB06 P0000 FZRANO
PFSH 250456Z AUTO 25009KT 6SM HZ BKN013 OVC018 01/ A2935 RMK AO2 SLP939 T0006 FZRANO
PFSH 250448Z AUTO 25009KT 10SM BKN014 OVC018 01/ A2935 RMK AO2 FZRANO
PFSH 250431Z AUTO 25010KT 10SM FEW009 BKN015 01/ A2935 RMK AO2 FZRANO
PFSH 250404Z AUTO 24011KT 10SM FEW016 SCT023 00/ A2936 RMK AO2 FZRANO
PFSH 250356Z AUTO 23014KT 10SM FEW014 SCT021 BKN028 00/ A2936 RMK AO2 UPB0257E03B20E49SNE0257B03E15B36E45 SLP940 P0000 T0000 FZRANO
PFSH 250335Z AUTO 23011KT 4SM UP FEW010 BKN036 OVC080 00/ A2936 RMK AO2 UPB0257E03B20SNE0257B03E15 P0000 FZRANO
PFSH 250256Z AUTO 23014KT 9SM -SN SCT009 BKN020 BKN036 01/ A2937 RMK AO2 UPE0157B25E27RAB0157E09B27E44SNB09E25B44 SLP944 P0000 60000 T0006 58004 FZRANO
PFSH 250226Z AUTO 24011KT 9SM UP FEW007 BKN039 OVC060 01/ A2937 RMK AO2 UPE0157B25RAB0157E09SNB09E25 P0000 FZRANO
PFSH 250213Z AUTO 24013KT 2SM -SN FEW007 SCT011 OVC018 01/ A2937 RMK AO2 VIS 3/4V5 UPE0157RAB0157E09SNB09 P0000 FZRANO
PFSH 250209Z AUTO 24011KT 6SM -SN BR FEW007 BKN011 OVC018 01/01 A2937 RMK AO2 UPE0157RAB0157E09SNB09 P0000 FZRANO
PFSH 250156Z AUTO 23013KT 3SM UP BR SCT010 BKN016 BKN023 01/01 A2937 RMK AO2 UPB45 SLP947 P0000 T00110011 FZRANO
PFSH 250154Z AUTO 24014KT 2 1/2SM UP BR FEW010 SCT014 BKN021 01/01 A2937 RMK AO2 UPB45 P0000 FZRANO
PFSH 250123Z AUTO 23011KT 10SM SCT021 BKN049 01/01 A2938 RMK AO2 FZRANO
PFSH 250056Z AUTO 23011KT 10SM BKN019 BKN028 OVC047 02/ A2938 RMK AO2 UPB02E04SNE02 SLP948 P0000 T0017 FZRANO
PFSH 250001Z AUTO 21013KT 7SM -SN FEW009 BKN017 OVC024 01/ A2939 RMK AO2 P0000 FZRANO
PFSH 242356Z AUTO 19011KT 3SM -SN BKN011 OVC015 01/ A2939 RMK AO2 RAE20B38E53SNB53 SLP953 P0000 60000 T0011 10017 20011 57004 FZRANO
PFSH 242256Z AUTO 19018KT 10SM -RA FEW007 BKN012 OVC017 01/ A2940 RMK AO2 RAE28B47UPB2159E00B18E26SNB28E47 SLP957 P0000 T0011 FZRANO
PFSH 242254Z AUTO 20019KT 10SM FEW007 BKN012 OVC017 01/ A2940 RMK AO2 RAE28B47E50UPB2159E00B18E26SNB28E47 P0000 FZRANO
PFSH 242243Z AUTO 19020KT 6SM -SN BKN009 OVC016 01/ A2941 RMK AO2 RAE28UPB2159E00B18E26SNB28 CIG 003V011 P0000 FZRANO
PFSH 242237Z AUTO 19019KT 4SM -SN SCT009 OVC017 01/ A2941 RMK AO2 RAE28UPB2159E00B18E26SNB28 P0000 FZRANO
PFSH 242232Z AUTO 20018KT 1 1/4SM -SN SCT009 OVC014 01/ A2941 RMK AO2 RAE28UPB2159E00B18E26SNB28 P0000 FZRANO
PFSH 242225Z AUTO 20018KT 2SM UP FEW009 BKN014 01/ A2941 RMK AO2 VIS 3/4V5 RAE16UPB2159E00B18 P0000 FZRANO
PFSH 242222Z AUTO 20020KT 6SM UP BKN016 01/ A2941 RMK AO2 RAE16UPB2159E00B18 P0000 FZRANO
PFSH 242156Z AUTO 19019KT 8SM -RA BKN014 BKN020 01/ A2941 RMK AO2 UPB2057E02RAB02E22B49SNB08E17 SLP959 P0000 T0011 FZRANO
PFSH 242118Z AUTO 19018KT 7SM -RA FEW010 BKN016 BKN025 01/ A2941 RMK AO2 UPB2057E02RAB02SNB08E17 P0000 FZRANO
PFSH 242109Z AUTO 20014KT 2 1/2SM -SN SCT010 BKN016 OVC027 01/ A2941 RMK AO2 UPB2057E02RAB02E08SNB08 P0000 FZRANO
PFSH 242056Z AUTO 22016KT 7SM FEW008 BKN017 BKN024 01/ A2941 RMK AO2 RAB03E08SNB08E20 SLP960 P0000 60000 T0011 53001 FZRANO
PFSH 241956Z AUTO 21013KT 10SM BKN020 BKN025 01/ A2941 RMK AO2 WSHFT 1916 SLP958 T0011 FZRANO
PFSH 241932Z AUTO 22010KT 10SM SCT017 SCT029 01/ A2941 RMK AO2 WSHFT 1916 FZRANO
PFSH 241858Z AUTO 19015KT 10SM FEW008 BKN015 01/ A2941 RMK AO2 FZRANO
PFSH 241856Z AUTO 19013KT 10SM SCT015 01/ A2941 RMK AO2 SNE04 SLP959 P0000 T0011 FZRANO
PFSH 241800Z AUTO 20010KT 3SM -SN FEW009 BKN015 BKN022 01/ A2941 RMK AO2 P0000 FZRANO
PFSH 241756Z AUTO 20011KT 1 1/2SM -SN SCT009 BKN015 BKN024 01/ A2941 RMK AO2 RAB47E49SNB49 SLP960 P0000 60000 T0006 10011 20006 58002 FZRANO
PFSH 241750Z AUTO 21014KT 2SM -SN FEW007 SCT015 BKN028 01/ A2941 RMK AO2 RAB47E49SNB49 P0000 FZRANO
PFSH 241741Z AUTO 20014KT 10SM FEW009 SCT015 BKN038 01/ A2941 RMK AO2 FZRANO
PFSH 241735Z AUTO 19012KT 10SM SCT013 BKN020 BKN025 01/ A2941 RMK AO2 FZRANO
PFSH 241656Z AUTO 20010KT 10SM BKN031 01/ A2942 RMK AO2 SLP962 T0006 FZRANO
PFSH 241616Z AUTO 20012KT 10SM FEW013 OVC027 01/ A2942 RMK AO2 FZRANO
PFSH 241556Z AUTO 20009KT 10SM BKN030 OVC035 01/ A2942 RMK AO2 RAB24E33UPB33E37 SLP963 P0000 T0011 FZRANO
PFSH 241537Z AUTO 19009KT 10SM FEW013 OVC032 01/ A2942 RMK AO2 RAB24E33UPB33E37 P0000 FZRANO
PFSH 241456Z AUTO 19007KT 10SM FEW012 BKN029 OVC034 01/ A2942 RMK AO2 UPB34E46 SLP962 P0000 60000 T0006 52004 FZRANO
PFSH 241356Z AUTO 22015KT 10SM OVC033 01/ A2941 RMK AO2 SLP960 T0011 FZRANO
PFSH 241316Z AUTO 17008KT 10SM SCT021 OVC033 01/ A2941 RMK AO2 FZRANO
PFSH 241256Z AUTO 18009KT 10SM BKN022 OVC028 01/ A2941 RMK AO2 RAB24E36 SLP960 P0000 T0011 FZRANO
PFSH 241156Z AUTO 17010KT 10SM FEW007 OVC027 01/ A2941 RMK AO2 SLP958 60000 T0011 10011 21017 51007 FZRANO
PFSH 241126Z AUTO 17010KT 10SM FEW007 OVC029 01/ A2941 RMK AO2 FZRANO
PFSH 241056Z AUTO 16008KT 10SM FEW006 OVC031 M01/ A2941 RMK AO2 SLP958 T1006 FZRANO